sensor_id;sensor_type;location;lat;lon;timestamp;temperature;humidity
57026;DHT22;43961;52.940;6.834;2022-12-18T00:01:05;-3.10;99.90
57026;DHT22;43961;52.940;6.834;2022-12-18T00:03:38;-3.10;99.90
57026;DHT22;43961;52.940;6.834;2022-12-18T00:06:04;-3.10;99.90
57026;DHT22;43961;52.940;6.834;2022-12-18T00:08:29;-3.10;99.90
57026;DHT22;43961;52.940;6.834;2022-12-18T00:10:55;-3.10;99.90
57026;DHT22;43961;52.940;6.834;2022-12-18T00:13:21;-3.20;99.90
57026;DHT22;43961;52.940;6.834;2022-12-18T00:15:46;-3.20;99.90
57026;DHT22;43961;52.940;6.834;2022-12-18T00:18:13;-3.20;99.90
57026;DHT22;43961;52.940;6.834;2022-12-18T00:20:39;-3.20;99.90
57026;DHT22;43961;52.940;6.834;2022-12-18T00:23:06;-3.20;99.90
57026;DHT22;43961;52.940;6.834;2022-12-18T00:25:33;-3.20;99.90
57026;DHT22;43961;52.940;6.834;2022-12-18T00:28:00;-3.20;99.90
57026;DHT22;43961;52.940;6.834;2022-12-18T00:30:26;-3.20;99.90
57026;DHT22;43961;52.940;6.834;2022-12-18T00:32:53;-3.20;99.90
57026;DHT22;43961;52.940;6.834;2022-12-18T00:35:18;-3.20;99.90
57026;DHT22;43961;52.940;6.834;2022-12-18T00:38:00;-3.20;99.90
57026;DHT22;43961;52.940;6.834;2022-12-18T00:40:26;-3.20;99.90
57026;DHT22;43961;52.940;6.834;2022-12-18T00:46:38;-3.20;99.90
57026;DHT22;43961;52.940;6.834;2022-12-18T00:49:04;-3.20;99.90
57026;DHT22;43961;52.940;6.834;2022-12-18T00:51:29;-3.30;99.90
57026;DHT22;43961;52.940;6.834;2022-12-18T00:53:55;-3.30;99.90
57026;DHT22;43961;52.940;6.834;2022-12-18T00:56:21;-3.30;99.90
57026;DHT22;43961;52.940;6.834;2022-12-18T00:58:47;-3.30;99.90
57026;DHT22;43961;52.940;6.834;2022-12-18T01:01:12;-3.30;99.90
57026;DHT22;43961;52.940;6.834;2022-12-18T01:03:38;-3.30;99.90
57026;DHT22;43961;52.940;6.834;2022-12-18T01:06:08;-3.30;99.90
57026;DHT22;43961;52.940;6.834;2022-12-18T01:08:34;-3.30;99.90
57026;DHT22;43961;52.940;6.834;2022-12-18T01:11:01;-3.30;99.90
57026;DHT22;43961;52.940;6.834;2022-12-18T01:13:27;-3.30;99.90
57026;DHT22;43961;52.940;6.834;2022-12-18T01:15:52;-3.30;99.90
57026;DHT22;43961;52.940;6.834;2022-12-18T01:18:18;-3.30;99.90
57026;DHT22;43961;52.940;6.834;2022-12-18T01:20:44;-3.40;99.90
57026;DHT22;43961;52.940;6.834;2022-12-18T01:23:09;-3.40;99.90
57026;DHT22;43961;52.940;6.834;2022-12-18T01:25:36;-3.40;99.90
57026;DHT22;43961;52.940;6.834;2022-12-18T01:28:02;-3.40;99.90
57026;DHT22;43961;52.940;6.834;2022-12-18T01:30:28;-3.40;99.90
57026;DHT22;43961;52.940;6.834;2022-12-18T01:32:53;-3.40;99.90
57026;DHT22;43961;52.940;6.834;2022-12-18T01:35:19;-3.50;99.90
57026;DHT22;43961;52.940;6.834;2022-12-18T01:37:45;-3.50;99.90
57026;DHT22;43961;52.940;6.834;2022-12-18T01:40:10;-3.60;99.90
57026;DHT22;43961;52.940;6.834;2022-12-18T01:42:37;-3.60;99.90
57026;DHT22;43961;52.940;6.834;2022-12-18T01:45:22;-3.60;99.90
57026;DHT22;43961;52.940;6.834;2022-12-18T01:47:50;-3.70;99.90
57026;DHT22;43961;52.940;6.834;2022-12-18T01:50:29;-3.70;99.90
57026;DHT22;43961;52.940;6.834;2022-12-18T01:53:03;-3.80;99.90
57026;DHT22;43961;52.940;6.834;2022-12-18T01:55:35;-3.80;99.90
57026;DHT22;43961;52.940;6.834;2022-12-18T01:58:02;-3.90;99.90
57026;DHT22;43961;52.940;6.834;2022-12-18T02:00:29;-3.90;99.90
57026;DHT22;43961;52.940;6.834;2022-12-18T02:02:54;-4.00;99.90
57026;DHT22;43961;52.940;6.834;2022-12-18T02:05:47;-4.10;99.90
57026;DHT22;43961;52.940;6.834;2022-12-18T02:11:08;-4.10;99.90
57026;DHT22;43961;52.940;6.834;2022-12-18T02:14:08;-4.10;99.90
57026;DHT22;43961;52.940;6.834;2022-12-18T02:17:01;-4.10;99.90
57026;DHT22;43961;52.940;6.834;2022-12-18T02:22:14;-4.20;99.90
57026;DHT22;43961;52.940;6.834;2022-12-18T02:27:26;-4.30;99.90
57026;DHT22;43961;52.940;6.834;2022-12-18T02:29:55;-4.40;99.90
57026;DHT22;43961;52.940;6.834;2022-12-18T02:32:27;-4.40;99.90
57026;DHT22;43961;52.940;6.834;2022-12-18T02:34:56;-4.50;99.90
57026;DHT22;43961;52.940;6.834;2022-12-18T02:37:23;-4.50;99.90
57026;DHT22;43961;52.940;6.834;2022-12-18T02:39:51;-4.60;99.90
57026;DHT22;43961;52.940;6.834;2022-12-18T02:42:18;-4.60;99.90
57026;DHT22;43961;52.940;6.834;2022-12-18T02:44:47;-4.60;99.90
57026;DHT22;43961;52.940;6.834;2022-12-18T02:47:16;-4.70;99.90
57026;DHT22;43961;52.940;6.834;2022-12-18T03:01:13;-4.90;99.90
57026;DHT22;43961;52.940;6.834;2022-12-18T03:06:39;-5.00;99.90
57026;DHT22;43961;52.940;6.834;2022-12-18T03:09:19;-5.00;99.90
57026;DHT22;43961;52.940;6.834;2022-12-18T03:11:51;-5.00;99.90
57026;DHT22;43961;52.940;6.834;2022-12-18T03:14:38;-5.00;99.90
57026;DHT22;43961;52.940;6.834;2022-12-18T03:17:09;-5.10;99.90
57026;DHT22;43961;52.940;6.834;2022-12-18T03:19:40;-5.20;99.90
57026;DHT22;43961;52.940;6.834;2022-12-18T03:22:07;-5.30;99.90
57026;DHT22;43961;52.940;6.834;2022-12-18T03:24:35;-5.40;99.90
57026;DHT22;43961;52.940;6.834;2022-12-18T03:27:08;-5.50;99.90
57026;DHT22;43961;52.940;6.834;2022-12-18T03:29:37;-5.50;99.90
57026;DHT22;43961;52.940;6.834;2022-12-18T03:32:30;-5.60;99.90
57026;DHT22;43961;52.940;6.834;2022-12-18T03:35:00;-5.60;99.90
57026;DHT22;43961;52.940;6.834;2022-12-18T03:37:31;-5.80;99.90
57026;DHT22;43961;52.940;6.834;2022-12-18T03:39:57;-5.80;99.90
57026;DHT22;43961;52.940;6.834;2022-12-18T03:42:30;-5.90;99.90
57026;DHT22;43961;52.940;6.834;2022-12-18T03:50:45;-6.00;99.90
57026;DHT22;43961;52.940;6.834;2022-12-18T03:56:00;-6.00;99.90
57026;DHT22;43961;52.940;6.834;2022-12-18T03:58:31;-6.10;99.90
57026;DHT22;43961;52.940;6.834;2022-12-18T04:01:01;-6.10;99.90
57026;DHT22;43961;52.940;6.834;2022-12-18T04:03:31;-6.20;99.90
57026;DHT22;43961;52.940;6.834;2022-12-18T04:05:58;-6.20;99.90
57026;DHT22;43961;52.940;6.834;2022-12-18T04:08:24;-6.20;99.90
57026;DHT22;43961;52.940;6.834;2022-12-18T04:10:51;-6.30;99.90
57026;DHT22;43961;52.940;6.834;2022-12-18T04:13:33;-6.30;99.90
57026;DHT22;43961;52.940;6.834;2022-12-18T04:15:59;-6.40;99.90
57026;DHT22;43961;52.940;6.834;2022-12-18T04:18:25;-6.50;99.90
57026;DHT22;43961;52.940;6.834;2022-12-18T04:20:51;-6.50;99.90
57026;DHT22;43961;52.940;6.834;2022-12-18T04:23:16;-6.50;99.90
57026;DHT22;43961;52.940;6.834;2022-12-18T04:25:42;-6.60;99.90
57026;DHT22;43961;52.940;6.834;2022-12-18T04:28:08;-6.60;99.90
57026;DHT22;43961;52.940;6.834;2022-12-18T04:30:33;-6.60;99.90
57026;DHT22;43961;52.940;6.834;2022-12-18T04:32:59;-6.60;99.90
57026;DHT22;43961;52.940;6.834;2022-12-18T04:35:25;-6.50;99.90
57026;DHT22;43961;52.940;6.834;2022-12-18T04:37:50;-6.60;99.90
57026;DHT22;43961;52.940;6.834;2022-12-18T04:40:19;-6.60;99.90
57026;DHT22;43961;52.940;6.834;2022-12-18T04:42:45;-6.60;99.90
57026;DHT22;43961;52.940;6.834;2022-12-18T04:45:10;-6.70;99.90
57026;DHT22;43961;52.940;6.834;2022-12-18T04:47:36;-6.70;99.90
57026;DHT22;43961;52.940;6.834;2022-12-18T04:50:02;-6.60;99.90
57026;DHT22;43961;52.940;6.834;2022-12-18T04:52:27;-6.70;99.90
57026;DHT22;43961;52.940;6.834;2022-12-18T04:54:53;-6.60;99.90
57026;DHT22;43961;52.940;6.834;2022-12-18T04:57:19;-6.60;99.90
57026;DHT22;43961;52.940;6.834;2022-12-18T04:59:44;-6.60;99.90
57026;DHT22;43961;52.940;6.834;2022-12-18T05:02:10;-6.60;99.90
57026;DHT22;43961;52.940;6.834;2022-12-18T05:04:36;-6.60;99.90
57026;DHT22;43961;52.940;6.834;2022-12-18T05:07:02;-6.70;99.90
57026;DHT22;43961;52.940;6.834;2022-12-18T05:09:27;-6.80;99.90
57026;DHT22;43961;52.940;6.834;2022-12-18T05:11:53;-6.80;99.90
57026;DHT22;43961;52.940;6.834;2022-12-18T05:14:19;-6.80;99.90
57026;DHT22;43961;52.940;6.834;2022-12-18T05:16:45;-6.90;99.90
57026;DHT22;43961;52.940;6.834;2022-12-18T05:19:10;-6.90;99.90
57026;DHT22;43961;52.940;6.834;2022-12-18T05:21:37;-6.90;99.90
57026;DHT22;43961;52.940;6.834;2022-12-18T05:24:03;-6.90;99.90
57026;DHT22;43961;52.940;6.834;2022-12-18T05:26:29;-7.00;99.90
57026;DHT22;43961;52.940;6.834;2022-12-18T05:28:54;-7.00;99.90
57026;DHT22;43961;52.940;6.834;2022-12-18T05:31:22;-6.90;99.90
57026;DHT22;43961;52.940;6.834;2022-12-18T05:33:48;-6.90;99.90
57026;DHT22;43961;52.940;6.834;2022-12-18T05:36:14;-6.90;99.90
57026;DHT22;43961;52.940;6.834;2022-12-18T05:38:40;-6.90;99.90
57026;DHT22;43961;52.940;6.834;2022-12-18T05:41:06;-6.90;99.90
57026;DHT22;43961;52.940;6.834;2022-12-18T05:43:34;-6.90;99.90
57026;DHT22;43961;52.940;6.834;2022-12-18T05:46:08;-6.90;99.90
57026;DHT22;43961;52.940;6.834;2022-12-18T05:48:36;-6.90;99.90
57026;DHT22;43961;52.940;6.834;2022-12-18T05:51:07;-6.90;99.90
57026;DHT22;43961;52.940;6.834;2022-12-18T05:53:33;-7.00;99.90
57026;DHT22;43961;52.940;6.834;2022-12-18T05:56:05;-7.00;99.90
57026;DHT22;43961;52.940;6.834;2022-12-18T05:58:31;-7.00;99.90
57026;DHT22;43961;52.940;6.834;2022-12-18T06:00:58;-7.00;99.90
57026;DHT22;43961;52.940;6.834;2022-12-18T06:03:30;-7.00;99.90
57026;DHT22;43961;52.940;6.834;2022-12-18T06:06:03;-7.00;99.90
57026;DHT22;43961;52.940;6.834;2022-12-18T06:08:30;-6.90;99.90
57026;DHT22;43961;52.940;6.834;2022-12-18T06:10:56;-7.00;99.90
57026;DHT22;43961;52.940;6.834;2022-12-18T06:13:22;-7.00;99.90
57026;DHT22;43961;52.940;6.834;2022-12-18T06:15:48;-6.90;99.90
57026;DHT22;43961;52.940;6.834;2022-12-18T06:18:13;-6.90;99.90
57026;DHT22;43961;52.940;6.834;2022-12-18T06:20:39;-6.90;99.90
57026;DHT22;43961;52.940;6.834;2022-12-18T06:23:07;-7.00;99.90
57026;DHT22;43961;52.940;6.834;2022-12-18T06:25:33;-7.00;99.90
57026;DHT22;43961;52.940;6.834;2022-12-18T06:27:59;-7.00;99.90
57026;DHT22;43961;52.940;6.834;2022-12-18T06:30:25;-7.00;99.90
57026;DHT22;43961;52.940;6.834;2022-12-18T06:32:51;-7.00;99.90
57026;DHT22;43961;52.940;6.834;2022-12-18T06:35:17;-7.00;99.90
57026;DHT22;43961;52.940;6.834;2022-12-18T06:37:43;-7.00;99.90
57026;DHT22;43961;52.940;6.834;2022-12-18T06:40:09;-7.00;99.90
57026;DHT22;43961;52.940;6.834;2022-12-18T06:42:37;-7.10;99.90
57026;DHT22;43961;52.940;6.834;2022-12-18T06:45:02;-7.10;99.90
57026;DHT22;43961;52.940;6.834;2022-12-18T06:47:29;-7.10;99.90
57026;DHT22;43961;52.940;6.834;2022-12-18T06:49:55;-7.10;99.90
57026;DHT22;43961;52.940;6.834;2022-12-18T06:52:20;-7.10;99.90
57026;DHT22;43961;52.940;6.834;2022-12-18T06:54:46;-7.20;99.90
57026;DHT22;43961;52.940;6.834;2022-12-18T06:57:12;-7.20;99.90
57026;DHT22;43961;52.940;6.834;2022-12-18T06:59:37;-7.20;99.90
57026;DHT22;43961;52.940;6.834;2022-12-18T07:02:03;-7.20;99.90
57026;DHT22;43961;52.940;6.834;2022-12-18T07:04:29;-7.10;99.90
57026;DHT22;43961;52.940;6.834;2022-12-18T07:06:55;-7.10;99.90
57026;DHT22;43961;52.940;6.834;2022-12-18T07:09:21;-7.10;99.90
57026;DHT22;43961;52.940;6.834;2022-12-18T07:11:47;-7.10;99.90
57026;DHT22;43961;52.940;6.834;2022-12-18T07:14:13;-7.10;99.90
57026;DHT22;43961;52.940;6.834;2022-12-18T07:16:39;-7.10;99.90
57026;DHT22;43961;52.940;6.834;2022-12-18T07:19:05;-7.10;99.90
57026;DHT22;43961;52.940;6.834;2022-12-18T07:21:30;-7.00;99.90
57026;DHT22;43961;52.940;6.834;2022-12-18T07:23:57;-7.00;99.90
57026;DHT22;43961;52.940;6.834;2022-12-18T07:26:23;-7.00;99.90
57026;DHT22;43961;52.940;6.834;2022-12-18T07:28:49;-7.00;99.90
57026;DHT22;43961;52.940;6.834;2022-12-18T07:31:20;-7.00;99.90
57026;DHT22;43961;52.940;6.834;2022-12-18T07:33:46;-7.00;99.90
57026;DHT22;43961;52.940;6.834;2022-12-18T07:36:13;-7.10;99.90
57026;DHT22;43961;52.940;6.834;2022-12-18T07:38:40;-7.00;99.90
57026;DHT22;43961;52.940;6.834;2022-12-18T07:41:08;-7.00;99.90
57026;DHT22;43961;52.940;6.834;2022-12-18T07:43:35;-7.00;99.90
57026;DHT22;43961;52.940;6.834;2022-12-18T07:46:01;-7.00;99.90
57026;DHT22;43961;52.940;6.834;2022-12-18T07:48:30;-6.90;99.90
57026;DHT22;43961;52.940;6.834;2022-12-18T07:51:05;-6.90;99.90
57026;DHT22;43961;52.940;6.834;2022-12-18T07:53:32;-6.80;99.90
57026;DHT22;43961;52.940;6.834;2022-12-18T07:55:59;-6.80;99.90
57026;DHT22;43961;52.940;6.834;2022-12-18T07:58:26;-6.80;99.90
57026;DHT22;43961;52.940;6.834;2022-12-18T08:00:52;-6.80;99.90
57026;DHT22;43961;52.940;6.834;2022-12-18T08:03:18;-6.70;99.90
57026;DHT22;43961;52.940;6.834;2022-12-18T08:05:44;-6.60;99.90
57026;DHT22;43961;52.940;6.834;2022-12-18T08:08:10;-6.60;99.90
57026;DHT22;43961;52.940;6.834;2022-12-18T08:10:37;-6.50;99.90
57026;DHT22;43961;52.940;6.834;2022-12-18T08:13:02;-6.50;99.90
57026;DHT22;43961;52.940;6.834;2022-12-18T08:15:28;-6.50;99.90
57026;DHT22;43961;52.940;6.834;2022-12-18T08:17:56;-6.40;99.90
57026;DHT22;43961;52.940;6.834;2022-12-18T08:20:22;-6.40;99.90
57026;DHT22;43961;52.940;6.834;2022-12-18T08:22:48;-6.40;99.90
57026;DHT22;43961;52.940;6.834;2022-12-18T08:25:13;-6.30;99.90
57026;DHT22;43961;52.940;6.834;2022-12-18T08:27:39;-6.30;99.90
57026;DHT22;43961;52.940;6.834;2022-12-18T08:30:05;-6.40;99.90
57026;DHT22;43961;52.940;6.834;2022-12-18T08:32:31;-6.30;99.90
57026;DHT22;43961;52.940;6.834;2022-12-18T08:34:58;-6.30;99.90
57026;DHT22;43961;52.940;6.834;2022-12-18T08:37:24;-6.30;99.90
57026;DHT22;43961;52.940;6.834;2022-12-18T08:39:50;-6.30;99.90
57026;DHT22;43961;52.940;6.834;2022-12-18T08:42:16;-6.20;99.90
57026;DHT22;43961;52.940;6.834;2022-12-18T08:45:01;-6.20;99.90
57026;DHT22;43961;52.940;6.834;2022-12-18T08:47:26;-6.10;99.90
57026;DHT22;43961;52.940;6.834;2022-12-18T08:49:52;-6.10;99.90
57026;DHT22;43961;52.940;6.834;2022-12-18T08:52:18;-6.10;99.90
57026;DHT22;43961;52.940;6.834;2022-12-18T08:54:43;-6.00;99.90
57026;DHT22;43961;52.940;6.834;2022-12-18T08:57:09;-6.00;99.90
57026;DHT22;43961;52.940;6.834;2022-12-18T08:59:35;-5.90;99.90
57026;DHT22;43961;52.940;6.834;2022-12-18T09:02:00;-5.90;99.90
57026;DHT22;43961;52.940;6.834;2022-12-18T09:04:26;-5.80;99.90
57026;DHT22;43961;52.940;6.834;2022-12-18T09:06:57;-5.80;99.90
57026;DHT22;43961;52.940;6.834;2022-12-18T09:09:22;-5.70;99.90
57026;DHT22;43961;52.940;6.834;2022-12-18T09:11:48;-5.60;99.90
57026;DHT22;43961;52.940;6.834;2022-12-18T09:14:13;-5.60;99.90
57026;DHT22;43961;52.940;6.834;2022-12-18T09:16:39;-5.50;99.90
57026;DHT22;43961;52.940;6.834;2022-12-18T09:19:05;-5.40;99.90
57026;DHT22;43961;52.940;6.834;2022-12-18T09:21:33;-5.30;99.90
57026;DHT22;43961;52.940;6.834;2022-12-18T09:24:00;-5.30;99.90
57026;DHT22;43961;52.940;6.834;2022-12-18T09:26:26;-5.20;99.90
57026;DHT22;43961;52.940;6.834;2022-12-18T09:28:52;-5.20;99.90
57026;DHT22;43961;52.940;6.834;2022-12-18T09:31:20;-5.10;99.90
57026;DHT22;43961;52.940;6.834;2022-12-18T09:33:46;-5.10;99.90
57026;DHT22;43961;52.940;6.834;2022-12-18T09:36:15;-5.00;99.90
57026;DHT22;43961;52.940;6.834;2022-12-18T09:38:42;-4.90;99.90
57026;DHT22;43961;52.940;6.834;2022-12-18T09:44:27;-4.80;99.90
57026;DHT22;43961;52.940;6.834;2022-12-18T09:49:47;-4.60;99.90
57026;DHT22;43961;52.940;6.834;2022-12-18T09:57:45;-4.40;99.90
57026;DHT22;43961;52.940;6.834;2022-12-18T10:00:19;-4.30;99.90
57026;DHT22;43961;52.940;6.834;2022-12-18T10:02:47;-4.20;99.90
57026;DHT22;43961;52.940;6.834;2022-12-18T10:05:16;-4.10;99.90
57026;DHT22;43961;52.940;6.834;2022-12-18T10:08:02;-4.00;99.90
57026;DHT22;43961;52.940;6.834;2022-12-18T10:10:43;-4.00;99.90
57026;DHT22;43961;52.940;6.834;2022-12-18T10:13:24;-3.80;99.90
57026;DHT22;43961;52.940;6.834;2022-12-18T10:21:08;-3.60;99.90
57026;DHT22;43961;52.940;6.834;2022-12-18T10:23:49;-3.50;99.90
57026;DHT22;43961;52.940;6.834;2022-12-18T10:26:17;-3.50;99.90
57026;DHT22;43961;52.940;6.834;2022-12-18T10:28:44;-3.50;99.90
57026;DHT22;43961;52.940;6.834;2022-12-18T10:31:17;-3.40;99.90
57026;DHT22;43961;52.940;6.834;2022-12-18T10:33:44;-3.40;99.90
57026;DHT22;43961;52.940;6.834;2022-12-18T10:36:10;-3.40;99.90
57026;DHT22;43961;52.940;6.834;2022-12-18T10:38:35;-3.40;99.90
57026;DHT22;43961;52.940;6.834;2022-12-18T10:41:25;-3.30;99.90
57026;DHT22;43961;52.940;6.834;2022-12-18T10:46:37;-3.30;99.90
57026;DHT22;43961;52.940;6.834;2022-12-18T10:49:03;-3.20;99.90
57026;DHT22;43961;52.940;6.834;2022-12-18T10:51:33;-3.20;99.90
57026;DHT22;43961;52.940;6.834;2022-12-18T10:54:06;-3.20;99.90
57026;DHT22;43961;52.940;6.834;2022-12-18T10:56:35;-3.10;99.90
57026;DHT22;43961;52.940;6.834;2022-12-18T11:01:51;-3.10;99.90
57026;DHT22;43961;52.940;6.834;2022-12-18T11:04:28;-3.10;99.90
57026;DHT22;43961;52.940;6.834;2022-12-18T11:09:31;-3.00;99.90
57026;DHT22;43961;52.940;6.834;2022-12-18T11:11:59;-2.90;99.90
57026;DHT22;43961;52.940;6.834;2022-12-18T11:14:27;-2.90;99.90
57026;DHT22;43961;52.940;6.834;2022-12-18T11:16:55;-2.80;99.90
57026;DHT22;43961;52.940;6.834;2022-12-18T11:21:54;-2.70;99.90
57026;DHT22;43961;52.940;6.834;2022-12-18T11:24:27;-2.70;99.90
57026;DHT22;43961;52.940;6.834;2022-12-18T11:26:57;-2.70;99.90
57026;DHT22;43961;52.940;6.834;2022-12-18T11:29:30;-2.60;99.90
57026;DHT22;43961;52.940;6.834;2022-12-18T11:32:36;-2.50;99.90
57026;DHT22;43961;52.940;6.834;2022-12-18T11:37:48;-2.40;99.90
57026;DHT22;43961;52.940;6.834;2022-12-18T11:40:20;-2.40;99.90
57026;DHT22;43961;52.940;6.834;2022-12-18T11:53:20;-2.10;99.90
57026;DHT22;43961;52.940;6.834;2022-12-18T11:56:08;-2.10;99.90
57026;DHT22;43961;52.940;6.834;2022-12-18T12:04:41;-2.00;99.90
57026;DHT22;43961;52.940;6.834;2022-12-18T12:12:31;-1.90;99.90
57026;DHT22;43961;52.940;6.834;2022-12-18T12:15:33;-1.80;99.90
57026;DHT22;43961;52.940;6.834;2022-12-18T12:18:23;-1.80;99.90
57026;DHT22;43961;52.940;6.834;2022-12-18T12:32:22;-1.70;99.90
57026;DHT22;43961;52.940;6.834;2022-12-18T12:35:20;-1.60;99.90
57026;DHT22;43961;52.940;6.834;2022-12-18T12:38:05;-1.60;99.90
57026;DHT22;43961;52.940;6.834;2022-12-18T12:40:36;-1.60;99.90
57026;DHT22;43961;52.940;6.834;2022-12-18T12:46:11;-1.50;99.90
57026;DHT22;43961;52.940;6.834;2022-12-18T12:49:00;-1.50;99.90
57026;DHT22;43961;52.940;6.834;2022-12-18T12:51:38;-1.50;99.90
57026;DHT22;43961;52.940;6.834;2022-12-18T12:54:06;-1.40;99.90
57026;DHT22;43961;52.940;6.834;2022-12-18T12:57:23;-1.40;99.90
57026;DHT22;43961;52.940;6.834;2022-12-18T13:00:11;-1.40;99.90
57026;DHT22;43961;52.940;6.834;2022-12-18T13:10:53;-1.30;99.90
57026;DHT22;43961;52.940;6.834;2022-12-18T13:13:51;-1.30;99.90
57026;DHT22;43961;52.940;6.834;2022-12-18T13:16:25;-1.30;99.90
57026;DHT22;43961;52.940;6.834;2022-12-18T13:18:54;-1.30;99.90
57026;DHT22;43961;52.940;6.834;2022-12-18T13:21:31;-1.20;99.90
57026;DHT22;43961;52.940;6.834;2022-12-18T13:24:15;-1.20;99.90
57026;DHT22;43961;52.940;6.834;2022-12-18T13:26:41;-1.20;99.90
57026;DHT22;43961;52.940;6.834;2022-12-18T13:29:07;-1.20;99.90
57026;DHT22;43961;52.940;6.834;2022-12-18T13:34:25;-1.20;99.90
57026;DHT22;43961;52.940;6.834;2022-12-18T13:36:52;-1.20;99.90
57026;DHT22;43961;52.940;6.834;2022-12-18T13:41:45;-1.20;99.90
57026;DHT22;43961;52.940;6.834;2022-12-18T13:47:00;-1.20;99.90
57026;DHT22;43961;52.940;6.834;2022-12-18T13:49:42;-1.20;99.90
57026;DHT22;43961;52.940;6.834;2022-12-18T13:52:21;-1.20;99.90
57026;DHT22;43961;52.940;6.834;2022-12-18T13:54:49;-1.20;99.90
57026;DHT22;43961;52.940;6.834;2022-12-18T13:57:36;-1.20;99.90
57026;DHT22;43961;52.940;6.834;2022-12-18T14:00:32;-1.20;99.90
57026;DHT22;43961;52.940;6.834;2022-12-18T14:02:58;-1.20;99.90
57026;DHT22;43961;52.940;6.834;2022-12-18T14:05:36;-1.30;99.90
57026;DHT22;43961;52.940;6.834;2022-12-18T14:08:08;-1.30;99.90
57026;DHT22;43961;52.940;6.834;2022-12-18T14:10:40;-1.30;99.90
57026;DHT22;43961;52.940;6.834;2022-12-18T14:13:09;-1.30;99.90
57026;DHT22;43961;52.940;6.834;2022-12-18T14:15:40;-1.40;99.90
57026;DHT22;43961;52.940;6.834;2022-12-18T14:18:23;-1.40;99.90
57026;DHT22;43961;52.940;6.834;2022-12-18T14:20:56;-1.40;99.90
57026;DHT22;43961;52.940;6.834;2022-12-18T14:23:32;-1.50;99.90
57026;DHT22;43961;52.940;6.834;2022-12-18T14:25:58;-1.50;99.90
57026;DHT22;43961;52.940;6.834;2022-12-18T14:28:24;-1.50;99.90
57026;DHT22;43961;52.940;6.834;2022-12-18T14:30:51;-1.60;99.90
57026;DHT22;43961;52.940;6.834;2022-12-18T14:33:23;-1.60;99.90
57026;DHT22;43961;52.940;6.834;2022-12-18T14:35:59;-1.60;99.90
57026;DHT22;43961;52.940;6.834;2022-12-18T14:38:39;-1.60;99.90
57026;DHT22;43961;52.940;6.834;2022-12-18T14:41:10;-1.70;99.90
57026;DHT22;43961;52.940;6.834;2022-12-18T14:43:43;-1.70;99.90
57026;DHT22;43961;52.940;6.834;2022-12-18T14:46:34;-1.70;99.90
57026;DHT22;43961;52.940;6.834;2022-12-18T14:49:31;-1.70;99.90
57026;DHT22;43961;52.940;6.834;2022-12-18T14:52:02;-1.70;99.90
57026;DHT22;43961;52.940;6.834;2022-12-18T14:54:30;-1.80;99.90
57026;DHT22;43961;52.940;6.834;2022-12-18T14:59:36;-1.80;99.90
57026;DHT22;43961;52.940;6.834;2022-12-18T15:02:21;-1.80;99.90
57026;DHT22;43961;52.940;6.834;2022-12-18T15:05:04;-1.80;99.90
57026;DHT22;43961;52.940;6.834;2022-12-18T15:07:48;-1.80;99.90
57026;DHT22;43961;52.940;6.834;2022-12-18T15:10:25;-1.90;99.90
57026;DHT22;43961;52.940;6.834;2022-12-18T15:21:19;-2.00;99.90
57026;DHT22;43961;52.940;6.834;2022-12-18T15:23:25;-2.00;99.90
57026;DHT22;43961;52.940;6.834;2022-12-18T15:26:07;-2.00;99.90
57026;DHT22;43961;52.940;6.834;2022-12-18T15:28:53;-2.00;99.90
57026;DHT22;43961;52.940;6.834;2022-12-18T15:31:31;-2.00;99.90
57026;DHT22;43961;52.940;6.834;2022-12-18T15:36:24;-2.00;99.90
57026;DHT22;43961;52.940;6.834;2022-12-18T15:38:55;-2.10;99.90
57026;DHT22;43961;52.940;6.834;2022-12-18T15:41:23;-2.00;99.90
57026;DHT22;43961;52.940;6.834;2022-12-18T15:43:51;-2.00;99.90
57026;DHT22;43961;52.940;6.834;2022-12-18T15:46:20;-2.00;99.90
57026;DHT22;43961;52.940;6.834;2022-12-18T15:48:48;-2.00;99.90
57026;DHT22;43961;52.940;6.834;2022-12-18T15:51:31;-2.00;99.90
57026;DHT22;43961;52.940;6.834;2022-12-18T15:54:00;-2.00;99.90
57026;DHT22;43961;52.940;6.834;2022-12-18T15:56:26;-2.00;99.90
57026;DHT22;43961;52.940;6.834;2022-12-18T15:59:12;-2.10;99.90
57026;DHT22;43961;52.940;6.834;2022-12-18T16:01:39;-2.10;99.90
57026;DHT22;43961;52.940;6.834;2022-12-18T16:04:06;-2.00;99.90
57026;DHT22;43961;52.940;6.834;2022-12-18T16:06:31;-2.00;99.90
57026;DHT22;43961;52.940;6.834;2022-12-18T16:08:57;-2.00;99.90
57026;DHT22;43961;52.940;6.834;2022-12-18T16:11:28;-2.00;99.90
57026;DHT22;43961;52.940;6.834;2022-12-18T16:14:21;-2.00;99.90
57026;DHT22;43961;52.940;6.834;2022-12-18T16:16:50;-2.00;99.90
57026;DHT22;43961;52.940;6.834;2022-12-18T16:19:17;-2.00;99.90
57026;DHT22;43961;52.940;6.834;2022-12-18T16:21:43;-2.00;99.90
57026;DHT22;43961;52.940;6.834;2022-12-18T16:24:27;-2.00;99.90
57026;DHT22;43961;52.940;6.834;2022-12-18T16:26:56;-2.00;99.90
57026;DHT22;43961;52.940;6.834;2022-12-18T16:29:26;-2.00;99.90
57026;DHT22;43961;52.940;6.834;2022-12-18T16:32:00;-2.00;99.90
57026;DHT22;43961;52.940;6.834;2022-12-18T16:34:30;-2.00;99.90
57026;DHT22;43961;52.940;6.834;2022-12-18T16:36:59;-2.00;99.90
57026;DHT22;43961;52.940;6.834;2022-12-18T16:39:25;-2.00;99.90
57026;DHT22;43961;52.940;6.834;2022-12-18T16:41:51;-1.90;99.90
57026;DHT22;43961;52.940;6.834;2022-12-18T16:44:17;-1.90;99.90
57026;DHT22;43961;52.940;6.834;2022-12-18T16:46:43;-2.00;99.90
57026;DHT22;43961;52.940;6.834;2022-12-18T16:49:15;-1.90;99.90
57026;DHT22;43961;52.940;6.834;2022-12-18T16:51:41;-1.90;99.90
57026;DHT22;43961;52.940;6.834;2022-12-18T16:54:07;-1.90;99.90
57026;DHT22;43961;52.940;6.834;2022-12-18T16:56:32;-1.80;99.90
57026;DHT22;43961;52.940;6.834;2022-12-18T16:59:00;-1.90;99.90
57026;DHT22;43961;52.940;6.834;2022-12-18T17:01:27;-1.80;99.90
57026;DHT22;43961;52.940;6.834;2022-12-18T17:04:02;-1.80;99.90
57026;DHT22;43961;52.940;6.834;2022-12-18T17:06:31;-1.80;99.90
57026;DHT22;43961;52.940;6.834;2022-12-18T17:09:02;-1.80;99.90
57026;DHT22;43961;52.940;6.834;2022-12-18T17:11:30;-1.80;99.90
57026;DHT22;43961;52.940;6.834;2022-12-18T17:13:57;-1.80;99.90
57026;DHT22;43961;52.940;6.834;2022-12-18T17:16:23;-1.80;99.90
57026;DHT22;43961;52.940;6.834;2022-12-18T17:18:49;-1.80;99.90
57026;DHT22;43961;52.940;6.834;2022-12-18T17:21:15;-1.70;99.90
57026;DHT22;43961;52.940;6.834;2022-12-18T17:23:41;-1.70;99.90
57026;DHT22;43961;52.940;6.834;2022-12-18T17:26:08;-1.70;99.90
57026;DHT22;43961;52.940;6.834;2022-12-18T17:28:35;-1.70;99.90
57026;DHT22;43961;52.940;6.834;2022-12-18T17:31:29;-1.60;99.90
57026;DHT22;43961;52.940;6.834;2022-12-18T17:34:04;-1.60;99.90
57026;DHT22;43961;52.940;6.834;2022-12-18T17:36:31;-1.60;99.90
57026;DHT22;43961;52.940;6.834;2022-12-18T17:38:58;-1.50;99.90
57026;DHT22;43961;52.940;6.834;2022-12-18T17:41:26;-1.50;99.90
57026;DHT22;43961;52.940;6.834;2022-12-18T17:43:58;-1.50;99.90
57026;DHT22;43961;52.940;6.834;2022-12-18T17:46:25;-1.50;99.90
57026;DHT22;43961;52.940;6.834;2022-12-18T17:48:57;-1.50;99.90
57026;DHT22;43961;52.940;6.834;2022-12-18T17:51:22;-1.50;99.90
57026;DHT22;43961;52.940;6.834;2022-12-18T17:53:48;-1.50;99.90
57026;DHT22;43961;52.940;6.834;2022-12-18T17:56:16;-1.40;99.90
57026;DHT22;43961;52.940;6.834;2022-12-18T17:58:42;-1.40;99.90